Time;durP1;ratioP1;P1;durP2;ratioP2;P2;SDS_P1;SDS_P2;PMS_P1;PMS_P2;Temp;Humidity;BMP_temperature;BMP_pressure;BME280_temperature;BME280_humidity;BME280_pressure;Samples;Min_cycle;Max_cycle;Signal;HPM_P1;HPM_P2
2023/07/31 00:01:59;;;;;;;13.93;3.00;;;44.30;33.80;;;;;;5073109;28;20059;-55
2023/07/31 00:04:25;;;;;;;15.07;2.75;;;44.20;34.10;;;;;;5067968;28;20060;-57
2023/07/31 00:06:52;;;;;;;11.57;2.78;;;44.20;35.20;;;;;;5069857;28;20039;-57
2023/07/31 00:09:18;;;;;;;13.25;2.92;;;44.20;34.70;;;;;;5074551;28;20048;-54
2023/07/31 00:11:45;;;;;;;12.05;3.85;;;44.20;34.30;;;;;;5068903;28;20169;-57
2023/07/31 00:14:11;;;;;;;11.18;3.38;;;44.20;34.50;;;;;;5069178;28;20107;-56
2023/07/31 00:16:37;;;;;;;10.57;2.55;;;44.20;34.00;;;;;;5069803;28;20059;-59
2023/07/31 00:19:04;;;;;;;7.05;2.50;;;44.10;33.30;;;;;;5072707;28;20063;-54
2023/07/31 00:21:30;;;;;;;7.30;2.50;;;44.10;34.10;;;;;;5068806;28;20433;-59
2023/07/31 00:23:56;;;;;;;10.82;2.88;;;44.10;33.70;;;;;;5069185;28;20049;-58
2023/07/31 00:26:23;;;;;;;7.15;2.42;;;44.00;33.80;;;;;;5069383;28;20092;-57
2023/07/31 00:28:49;;;;;;;9.35;2.78;;;44.00;34.20;;;;;;5068886;28;20069;-59
2023/07/31 00:31:15;;;;;;;12.32;2.95;;;44.00;34.50;;;;;;5069547;28;20048;-57
2023/07/31 00:33:42;;;;;;;8.30;2.50;;;43.90;34.00;;;;;;5067926;28;20057;-59
2023/07/31 00:36:08;;;;;;;10.00;2.80;;;43.80;32.90;;;;;;5069089;28;20135;-58
2023/07/31 00:38:34;;;;;;;9.23;2.65;;;43.80;33.20;;;;;;5069172;28;20043;-58
2023/07/31 00:41:01;;;;;;;10.70;2.83;;;43.70;33.90;;;;;;5068659;28;20055;-58
2023/07/31 00:43:27;;;;;;;7.40;2.63;;;43.70;34.10;;;;;;5068821;28;20545;-58
2023/07/31 00:45:54;;;;;;;7.57;2.70;;;43.60;34.60;;;;;;5067891;28;20443;-56
2023/07/31 00:48:21;;;;;;;10.55;2.85;;;43.60;34.10;;;;;;5068825;28;20046;-59
2023/07/31 00:50:47;;;;;;;12.32;3.38;;;43.50;33.70;;;;;;5069138;28;20048;-60
2023/07/31 00:53:14;;;;;;;9.20;2.67;;;43.50;34.30;;;;;;5070139;28;20090;-58
2023/07/31 00:55:40;;;;;;;6.53;2.10;;;43.50;33.80;;;;;;5068724;28;20058;-60
2023/07/31 00:58:07;;;;;;;14.95;2.38;;;43.50;33.40;;;;;;5069195;28;20075;-59
2023/07/31 01:00:33;;;;;;;8.73;3.00;;;43.30;33.70;;;;;;5069168;28;20058;-58
2023/07/31 01:03:00;;;;;;;13.68;2.80;;;43.30;34.20;;;;;;5067620;28;20545;-57
2023/07/31 01:05:40;;;;;;;5.72;2.40;;;43.20;32.70;;;;;;5069951;28;20130;-59
2023/07/31 01:08:28;;;;;;;6.43;2.10;;;43.10;33.70;;;;;;5068842;28;20103;-58
2023/07/31 01:11:02;;;;;;;13.68;3.13;;;43.10;34.20;;;;;;5068418;28;20059;-58
2023/07/31 01:13:29;;;;;;;8.98;2.45;;;43.10;34.50;;;;;;5068493;28;20082;-58
2023/07/31 01:15:56;;;;;;;13.30;2.72;;;43.00;34.10;;;;;;5068039;28;20561;-59
2023/07/31 01:18:22;;;;;;;9.52;2.28;;;43.00;34.50;;;;;;5068720;28;20089;-59
2023/07/31 01:20:58;;;;;;;9.27;2.80;;;43.00;35.10;;;;;;5068869;28;20084;-58
2023/07/31 01:24:03;;;;;;;10.20;3.13;;;42.90;34.00;;;;;;5068699;28;20550;-59
2023/07/31 01:26:38;;;;;;;5.90;2.50;;;42.80;34.00;;;;;;5052688;28;20058;-56
2023/07/31 01:29:20;;;;;;;10.33;2.77;;;42.80;35.20;;;;;;5068126;28;20135;-58
2023/07/31 01:31:50;;;;;;;10.45;2.97;;;42.70;35.00;;;;;;5066784;28;20058;-59
2023/07/31 01:34:17;;;;;;;10.60;2.60;;;42.70;34.30;;;;;;5067603;28;20428;-57
2023/07/31 01:36:44;;;;;;;8.57;2.80;;;42.60;34.40;;;;;;5069006;28;20049;-58
2023/07/31 01:39:10;;;;;;;9.82;2.65;;;42.60;34.70;;;;;;5067882;28;20535;-59
2023/07/31 01:41:37;;;;;;;13.85;2.47;;;42.60;35.00;;;;;;5067201;28;20142;-58
2023/07/31 01:44:03;;;;;;;6.05;2.38;;;42.70;35.20;;;;;;5069041;28;20053;-60
2023/07/31 01:46:30;;;;;;;7.32;2.67;;;42.80;35.10;;;;;;5067619;28;20080;-58
2023/07/31 01:48:56;;;;;;;6.07;2.42;;;43.00;35.00;;;;;;5067786;28;20127;-59
2023/07/31 01:51:23;;;;;;;7.10;2.33;;;43.20;35.10;;;;;;5066816;28;20112;-60
2023/07/31 01:53:49;;;;;;;10.80;2.60;;;43.30;33.70;;;;;;5067309;28;20387;-58
2023/07/31 01:56:16;;;;;;;6.57;2.40;;;43.30;33.30;;;;;;5067523;28;20086;-58
2023/07/31 01:58:42;;;;;;;9.15;2.33;;;43.10;33.70;;;;;;5067112;28;20513;-57
2023/07/31 02:01:08;;;;;;;14.00;3.20;;;43.00;34.80;;;;;;5068306;28;20139;-57
2023/07/31 02:03:35;;;;;;;13.98;2.70;;;43.20;33.00;;;;;;5070413;28;20057;-59
2023/07/31 02:06:01;;;;;;;12.32;2.85;;;43.80;33.00;;;;;;5066182;28;20510;-57
2023/07/31 02:08:28;;;;;;;10.10;2.88;;;43.90;33.10;;;;;;5069106;28;20052;-58
2023/07/31 02:10:54;;;;;;;9.50;2.70;;;43.50;33.10;;;;;;5067312;28;20078;-59
2023/07/31 02:13:21;;;;;;;10.00;3.10;;;43.10;33.30;;;;;;5066081;28;20054;-55
2023/07/31 02:15:48;;;;;;;4.25;2.25;;;42.70;34.10;;;;;;5065728;28;20079;-57
2023/07/31 02:18:15;;;;;;;10.60;2.80;;;42.50;33.80;;;;;;5069459;28;20091;-59
2023/07/31 02:20:41;;;;;;;10.15;2.70;;;42.30;34.80;;;;;;5068654;28;20063;-61
2023/07/31 02:23:08;;;;;;;9.95;2.63;;;42.10;35.80;;;;;;5068263;28;20063;-58
2023/07/31 02:25:34;;;;;;;8.02;2.30;;;41.90;35.30;;;;;;5066249;28;20051;-58
2023/07/31 02:28:01;;;;;;;10.10;2.60;;;41.70;35.70;;;;;;5066573;28;20548;-57
2023/07/31 02:30:27;;;;;;;8.98;2.50;;;41.60;36.00;;;;;;5066075;28;20138;-57
2023/07/31 02:32:53;;;;;;;13.10;2.50;;;41.50;36.00;;;;;;5066555;28;20200;-57
2023/07/31 02:35:20;;;;;;;9.00;3.28;;;41.40;35.90;;;;;;5069500;28;21286;-57
2023/07/31 02:37:46;;;;;;;11.88;3.10;;;41.30;36.20;;;;;;5067027;28;20436;-58
2023/07/31 02:40:13;;;;;;;12.13;3.30;;;41.10;36.90;;;;;;5066605;28;20063;-59
2023/07/31 02:42:39;;;;;;;12.77;2.65;;;40.90;36.70;;;;;;5070151;28;20600;-59
2023/07/31 02:45:06;;;;;;;8.52;3.28;;;40.80;37.20;;;;;;5067100;28;20064;-58
2023/07/31 02:47:33;;;;;;;13.50;3.10;;;40.80;37.60;;;;;;5065650;28;20566;-61
2023/07/31 02:49:59;;;;;;;17.23;3.25;;;40.60;37.60;;;;;;5066953;28;20076;-60
2023/07/31 02:52:26;;;;;;;30.60;3.83;;;40.60;38.00;;;;;;5066392;28;20066;-59
2023/07/31 02:54:52;;;;;;;19.50;4.30;;;40.50;38.20;;;;;;5067073;28;20067;-59
2023/07/31 02:57:19;;;;;;;24.02;3.80;;;40.50;38.30;;;;;;5066351;28;20405;-56
2023/07/31 02:59:45;;;;;;;18.90;4.03;;;40.40;38.30;;;;;;5066704;28;20064;-56
2023/07/31 03:02:12;;;;;;;20.13;3.47;;;40.40;38.30;;;;;;5066868;28;20152;-59
2023/07/31 03:04:39;;;;;;;13.98;3.33;;;40.30;38.30;;;;;;5067178;28;20397;-59
2023/07/31 03:07:06;;;;;;;13.13;3.45;;;40.30;38.80;;;;;;5066611;28;20556;-59
2023/07/31 03:09:32;;;;;;;22.55;3.47;;;40.30;39.20;;;;;;5065556;28;20551;-60
2023/07/31 03:11:58;;;;;;;17.75;3.83;;;40.20;39.20;;;;;;5067180;28;20151;-58
2023/07/31 03:14:26;;;;;;;22.10;4.00;;;40.10;38.70;;;;;;5066263;28;20068;-58
2023/07/31 03:16:53;;;;;;;20.67;3.88;;;40.10;38.70;;;;;;5065807;28;20170;-57
2023/07/31 03:19:20;;;;;;;18.25;3.35;;;40.10;38.90;;;;;;5065228;28;20369;-57
2023/07/31 03:21:46;;;;;;;26.38;3.20;;;40.10;38.90;;;;;;5066589;28;20545;-57
2023/07/31 03:24:12;;;;;;;16.73;3.45;;;40.10;39.00;;;;;;5068556;28;20133;-57
2023/07/31 03:26:41;;;;;;;14.07;3.38;;;40.10;39.20;;;;;;5066532;28;20062;-58
2023/07/31 03:29:08;;;;;;;17.52;3.63;;;40.10;39.50;;;;;;5066708;28;20062;-57
2023/07/31 03:31:34;;;;;;;22.88;3.83;;;40.10;39.60;;;;;;5066762;28;20052;-57
2023/07/31 03:34:01;;;;;;;16.38;3.95;;;40.00;39.60;;;;;;5066574;28;20546;-58
2023/07/31 03:36:27;;;;;;;16.58;3.40;;;40.00;39.70;;;;;;5067297;28;20060;-57
2023/07/31 03:38:54;;;;;;;14.70;3.13;;;40.00;39.90;;;;;;5066375;28;20438;-59
2023/07/31 03:41:20;;;;;;;26.95;3.83;;;39.90;40.10;;;;;;5066464;28;20064;-59
2023/07/31 03:43:55;;;;;;;18.77;3.17;;;39.90;40.00;;;;;;5066395;28;20058;-58
2023/07/31 03:46:23;;;;;;;26.77;3.97;;;39.90;40.00;;;;;;5066784;28;20049;-59
2023/07/31 03:48:49;;;;;;;18.27;3.53;;;39.80;40.10;;;;;;5074662;28;20555;-58
2023/07/31 03:51:17;;;;;;;23.55;4.10;;;39.80;40.20;;;;;;5066575;28;20060;-59
2023/07/31 03:53:44;;;;;;;20.08;4.13;;;39.80;40.50;;;;;;5066934;28;20537;-64
2023/07/31 03:56:10;;;;;;;35.38;4.38;;;39.70;40.60;;;;;;5069659;28;20081;-60
2023/07/31 03:58:37;;;;;;;22.10;4.60;;;39.60;41.20;;;;;;5066810;28;20076;-58
2023/07/31 04:01:04;;;;;;;18.25;4.93;;;39.60;41.00;;;;;;5066482;28;20158;-60
2023/07/31 04:03:30;;;;;;;19.67;4.40;;;39.50;41.00;;;;;;5066279;28;20082;-56
2023/07/31 04:05:57;;;;;;;23.25;4.85;;;39.50;41.70;;;;;;5070626;28;20066;-59
2023/07/31 04:08:24;;;;;;;25.45;4.60;;;39.40;41.40;;;;;;5066252;28;20151;-59
2023/07/31 04:10:50;;;;;;;31.65;4.88;;;39.30;41.50;;;;;;5066025;28;20270;-56
2023/07/31 04:13:17;;;;;;;26.95;4.63;;;39.20;41.60;;;;;;5067439;28;20075;-59
2023/07/31 04:15:47;;;;;;;30.67;4.85;;;39.20;42.00;;;;;;5066085;28;20070;-57
2023/07/31 04:18:14;;;;;;;23.23;4.90;;;39.20;41.90;;;;;;5069788;28;20787;-60
2023/07/31 04:20:40;;;;;;;23.35;4.95;;;39.10;42.00;;;;;;5068303;28;20082;-59
2023/07/31 04:23:06;;;;;;;24.65;5.40;;;39.00;42.10;;;;;;5074392;28;20555;-58
2023/07/31 04:25:34;;;;;;;24.90;5.72;;;38.90;42.10;;;;;;5071920;28;20065;-60
2023/07/31 04:28:01;;;;;;;26.42;5.30;;;38.90;41.90;;;;;;5069474;28;20101;-56
2023/07/31 04:30:27;;;;;;;25.60;5.75;;;38.80;42.30;;;;;;5070441;28;20422;-60
2023/07/31 04:32:54;;;;;;;39.47;6.50;;;38.80;41.90;;;;;;5069102;28;20081;-59
2023/07/31 04:35:20;;;;;;;33.35;5.82;;;38.80;42.00;;;;;;5069849;28;20076;-59
2023/07/31 04:37:48;;;;;;;34.20;5.80;;;38.80;42.10;;;;;;5074602;28;20144;-58
2023/07/31 04:40:16;;;;;;;41.30;5.20;;;38.80;42.60;;;;;;5069579;28;20084;-60
2023/07/31 04:42:42;;;;;;;31.52;4.18;;;38.80;42.80;;;;;;5074124;28;20072;-58
2023/07/31 04:45:09;;;;;;;32.70;4.30;;;38.80;42.40;;;;;;5070317;28;20059;-60
2023/07/31 04:47:36;;;;;;;25.08;3.90;;;38.80;42.40;;;;;;5072996;28;20145;-57
2023/07/31 04:50:02;;;;;;;33.47;4.20;;;38.70;42.50;;;;;;5069460;28;20119;-60
2023/07/31 04:52:28;;;;;;;39.25;4.90;;;38.70;42.90;;;;;;5069234;28;20446;-60
2023/07/31 04:54:55;;;;;;;30.88;4.38;;;38.70;43.00;;;;;;5071092;28;20569;-58
2023/07/31 04:57:21;;;;;;;29.52;4.10;;;38.70;43.10;;;;;;5069172;28;20152;-59
2023/07/31 04:59:48;;;;;;;30.00;4.53;;;38.70;43.20;;;;;;5069140;28;20172;-59
2023/07/31 05:02:14;;;;;;;22.05;4.38;;;38.70;43.30;;;;;;5070790;28;20557;-58
2023/07/31 05:04:41;;;;;;;25.13;4.25;;;38.70;43.50;;;;;;5070081;28;20116;-57
2023/07/31 05:07:07;;;;;;;21.27;4.65;;;38.70;43.50;;;;;;5069358;28;20070;-59
2023/07/31 05:09:33;;;;;;;26.73;5.10;;;38.60;43.80;;;;;;5071822;28;20089;-55
2023/07/31 05:12:00;;;;;;;24.20;4.90;;;38.60;43.70;;;;;;5069965;28;20077;-57
2023/07/31 05:14:26;;;;;;;29.90;4.82;;;38.60;43.90;;;;;;5066379;28;20068;-56
2023/07/31 05:16:53;;;;;;;24.23;4.30;;;38.50;44.00;;;;;;5069358;28;20098;-63
2023/07/31 05:19:19;;;;;;;22.27;4.30;;;38.70;44.40;;;;;;5067891;28;20074;-62
2023/07/31 05:21:46;;;;;;;29.48;4.47;;;39.10;44.40;;;;;;5067850;28;20084;-64
2023/07/31 05:24:12;;;;;;;20.52;5.20;;;39.50;44.00;;;;;;5070015;28;20064;-66
2023/07/31 05:26:38;;;;;;;25.40;5.78;;;39.60;43.90;;;;;;5066858;28;20070;-66
2023/07/31 05:29:05;;;;;;;20.05;5.18;;;39.90;43.80;;;;;;5067181;28;20515;-64
2023/07/31 05:31:32;;;;;;;19.70;5.40;;;40.10;43.80;;;;;;5074580;28;20065;-66
2023/07/31 05:33:58;;;;;;;27.80;5.78;;;40.10;44.40;;;;;;5066855;28;20058;-64
2023/07/31 05:36:25;;;;;;;24.13;5.30;;;40.10;45.10;;;;;;5065650;28;20062;-65
2023/07/31 05:38:51;;;;;;;21.15;5.10;;;40.00;45.60;;;;;;5067285;28;20068;-65
2023/07/31 05:41:18;;;;;;;17.02;3.92;;;40.20;46.30;;;;;;5065665;28;20391;-66
2023/07/31 05:43:45;;;;;;;15.95;4.80;;;40.00;46.90;;;;;;5067488;28;20070;-64
2023/07/31 05:46:12;;;;;;;28.08;5.30;;;39.90;47.50;;;;;;5067467;28;20086;-64
2023/07/31 05:48:38;;;;;;;30.88;5.45;;;39.90;48.10;;;;;;5066929;28;20064;-63
2023/07/31 05:51:05;;;;;;;25.52;4.93;;;39.70;48.20;;;;;;5071274;28;20098;-62
2023/07/31 05:53:31;;;;;;;25.63;5.28;;;39.60;48.90;;;;;;5068660;28;20126;-65
2023/07/31 05:55:57;;;;;;;21.35;4.70;;;39.50;49.30;;;;;;5068569;28;20411;-66
2023/07/31 05:58:24;;;;;;;19.50;4.68;;;39.30;49.40;;;;;;5067057;28;20076;-64
2023/07/31 06:00:50;;;;;;;22.50;4.97;;;39.20;49.80;;;;;;5067639;28;20595;-63
2023/07/31 06:03:16;;;;;;;19.25;5.20;;;39.10;50.20;;;;;;5070392;28;20083;-65
2023/07/31 06:05:43;;;;;;;27.42;5.40;;;39.00;50.60;;;;;;5066499;28;20068;-65
2023/07/31 06:08:09;;;;;;;18.25;5.78;;;38.90;51.40;;;;;;5066061;28;20103;-65
2023/07/31 06:10:36;;;;;;;15.55;5.03;;;39.00;51.70;;;;;;5065760;28;20155;-63
2023/07/31 06:13:02;;;;;;;14.77;3.65;;;39.00;52.30;;;;;;5065989;28;20073;-65
2023/07/31 06:15:28;;;;;;;19.95;4.13;;;38.90;53.30;;;;;;5066787;28;20072;-63
2023/07/31 06:17:55;;;;;;;12.63;3.53;;;38.80;53.80;;;;;;5066139;28;20081;-64
2023/07/31 06:20:22;;;;;;;18.13;3.97;;;38.60;54.40;;;;;;5067073;28;20261;-64
2023/07/31 06:22:48;;;;;;;15.43;3.30;;;38.40;54.60;;;;;;5068901;28;20109;-63
2023/07/31 06:25:15;;;;;;;21.13;3.85;;;38.50;55.10;;;;;;5065667;28;20485;-64
2023/07/31 06:27:41;;;;;;;14.85;3.50;;;38.50;55.10;;;;;;5065548;28;20075;-67
2023/07/31 06:30:08;;;;;;;11.85;3.28;;;38.40;55.40;;;;;;5067317;28;20073;-65
2023/07/31 06:32:34;;;;;;;14.05;3.90;;;38.30;55.40;;;;;;5065349;28;20517;-64
2023/07/31 06:35:00;;;;;;;22.67;3.90;;;38.30;55.60;;;;;;5065057;28;20070;-64
2023/07/31 06:37:27;;;;;;;20.75;4.30;;;38.30;55.80;;;;;;5066867;28;20156;-63
2023/07/31 06:39:53;;;;;;;14.05;3.90;;;38.30;55.90;;;;;;5066196;28;20082;-64
2023/07/31 06:42:20;;;;;;;13.55;3.60;;;38.20;56.50;;;;;;5064837;28;20609;-63
2023/07/31 06:44:47;;;;;;;15.93;3.53;;;38.10;57.20;;;;;;5065273;28;20099;-63
2023/07/31 06:47:13;;;;;;;16.15;4.00;;;38.00;57.60;;;;;;5065315;28;20074;-68
2023/07/31 06:49:40;;;;;;;13.02;3.55;;;37.90;58.00;;;;;;5066213;28;20153;-64
2023/07/31 06:52:06;;;;;;;14.60;3.72;;;37.70;58.30;;;;;;5066301;28;20089;-64
2023/07/31 06:54:33;;;;;;;14.55;3.40;;;37.60;58.70;;;;;;5066662;28;20517;-64
2023/07/31 06:56:59;;;;;;;13.60;3.42;;;37.70;58.70;;;;;;5066720;28;20165;-66
2023/07/31 06:59:25;;;;;;;10.05;3.28;;;37.60;58.30;;;;;;5064773;28;20083;-64
2023/07/31 07:01:52;;;;;;;14.95;3.85;;;37.50;58.40;;;;;;5066016;28;20121;-64
2023/07/31 07:04:18;;;;;;;15.18;3.55;;;37.40;58.30;;;;;;5065307;28;20103;-65
2023/07/31 07:06:45;;;;;;;19.67;3.20;;;37.40;58.60;;;;;;5066392;28;20082;-64
2023/07/31 07:09:11;;;;;;;15.00;3.15;;;37.30;58.50;;;;;;5066984;28;20082;-62
2023/07/31 07:11:37;;;;;;;13.48;3.67;;;37.10;58.70;;;;;;5066839;28;20125;-64
2023/07/31 07:14:04;;;;;;;14.18;3.05;;;36.90;58.60;;;;;;5064903;28;20075;-65
2023/07/31 07:16:30;;;;;;;13.82;3.10;;;36.70;59.10;;;;;;5065336;28;20577;-64
2023/07/31 07:18:57;;;;;;;10.25;2.90;;;36.70;59.40;;;;;;5065859;28;20071;-66
2023/07/31 07:21:24;;;;;;;12.27;3.22;;;36.70;59.40;;;;;;5068211;28;20075;-66
2023/07/31 07:23:50;;;;;;;9.80;2.63;;;36.60;59.30;;;;;;5072987;28;20438;-66
2023/07/31 07:26:16;;;;;;;9.77;2.50;;;36.60;59.20;;;;;;5067799;28;20068;-65
2023/07/31 07:28:43;;;;;;;7.28;2.60;;;36.60;59.10;;;;;;5065752;28;20133;-64
2023/07/31 07:31:09;;;;;;;14.32;3.00;;;36.50;58.70;;;;;;5067751;28;20174;-65
2023/07/31 07:33:36;;;;;;;11.57;3.05;;;36.30;58.60;;;;;;5065249;28;20076;-63
2023/07/31 07:36:02;;;;;;;16.02;3.17;;;36.30;58.10;;;;;;5067258;28;20123;-64
2023/07/31 07:38:29;;;;;;;13.52;2.80;;;36.30;58.00;;;;;;5065153;28;20114;-63
2023/07/31 07:40:55;;;;;;;15.43;3.10;;;36.20;57.40;;;;;;5066018;28;20137;-62
2023/07/31 07:43:22;;;;;;;10.60;2.60;;;36.20;56.90;;;;;;5066078;28;20107;-65
2023/07/31 07:45:48;;;;;;;12.18;2.60;;;36.10;56.50;;;;;;5069122;28;20623;-64
2023/07/31 07:48:17;;;;;;;8.35;2.25;;;36.20;56.00;;;;;;5066192;28;20084;-64
2023/07/31 07:50:43;;;;;;;12.15;2.97;;;36.20;55.70;;;;;;5065091;28;20083;-66
2023/07/31 07:53:10;;;;;;;9.40;2.53;;;36.10;55.10;;;;;;5066333;28;20088;-65
2023/07/31 07:55:36;;;;;;;8.73;2.63;;;36.00;54.90;;;;;;5072036;28;20448;-64
2023/07/31 07:58:02;;;;;;;7.22;2.40;;;36.00;54.70;;;;;;5069143;28;20088;-64
2023/07/31 08:00:29;;;;;;;6.97;2.83;;;36.00;54.60;;;;;;5069444;28;20085;-64
2023/07/31 08:02:57;;;;;;;12.57;3.45;;;36.00;54.40;;;;;;5070822;28;20565;-61
2023/07/31 08:05:23;;;;;;;37.45;4.38;;;36.00;54.40;;;;;;5070015;28;20087;-64
2023/07/31 08:07:50;;;;;;;31.42;3.97;;;35.90;56.00;;;;;;5069395;28;20144;-64
2023/07/31 08:10:16;;;;;;;54.20;5.47;;;35.80;57.80;;;;;;5069146;28;20076;-64
2023/07/31 08:12:42;;;;;;;132.25;9.60;;;35.60;59.40;;;;;;5069315;28;20080;-65
2023/07/31 08:15:09;;;;;;;136.95;10.68;;;35.50;61.10;;;;;;5077482;28;20168;-64
2023/07/31 08:17:35;;;;;;;218.63;15.10;;;35.50;62.40;;;;;;5070169;28;20651;-67
2023/07/31 08:20:02;;;;;;;398.23;24.95;;;35.30;64.20;;;;;;5070216;28;20080;-66
2023/07/31 08:22:28;;;;;;;247.07;20.42;;;35.10;66.30;;;;;;5069415;28;20198;-65
2023/07/31 08:24:55;;;;;;;282.02;17.48;;;35.00;67.90;;;;;;5069204;28;20670;-60
2023/07/31 08:27:21;;;;;;;259.70;18.92;;;34.80;70.40;;;;;;5069831;28;20069;-65
2023/07/31 08:29:47;;;;;;;292.30;22.92;;;34.40;72.30;;;;;;5068492;28;20119;-61
2023/07/31 08:32:14;;;;;;;293.85;20.33;;;34.00;75.00;;;;;;5068378;28;20084;-60
2023/07/31 08:34:41;;;;;;;282.83;22.25;;;33.70;79.10;;;;;;5069019;28;20503;-60
2023/07/31 08:37:08;;;;;;;319.98;24.08;;;33.60;81.60;;;;;;5069533;28;20550;-62
2023/07/31 08:39:34;;;;;;;260.27;22.40;;;33.30;87.00;;;;;;5068883;28;20462;-61
2023/07/31 08:42:01;;;;;;;233.35;19.23;;;32.70;92.20;;;;;;5068514;28;20124;-61
2023/07/31 08:44:29;;;;;;;201.57;16.45;;;32.00;95.50;;;;;;5070496;28;20104;-62
2023/07/31 08:46:56;;;;;;;188.27;15.10;;;31.60;96.30;;;;;;5067648;28;20073;-63
2023/07/31 08:49:23;;;;;;;192.52;16.20;;;31.50;96.40;;;;;;5070820;28;20080;-61
2023/07/31 08:51:52;;;;;;;190.15;16.40;;;31.50;96.30;;;;;;5068909;28;20093;-62
2023/07/31 08:54:18;;;;;;;279.58;20.67;;;31.50;95.80;;;;;;5067986;28;20077;-64
2023/07/31 08:56:46;;;;;;;364.00;23.23;;;31.40;94.50;;;;;;5067297;28;20118;-63
2023/07/31 08:59:14;;;;;;;311.55;23.85;;;31.40;91.80;;;;;;5067351;28;20172;-65
2023/07/31 09:01:46;;;;;;;471.15;34.90;;;31.40;90.50;;;;;;5068122;28;20142;-62
2023/07/31 09:04:14;;;;;;;457.73;34.53;;;31.40;91.00;;;;;;5066160;28;20135;-63
2023/07/31 09:06:42;;;;;;;567.45;46.00;;;31.20;92.30;;;;;;5068722;28;20111;-63
2023/07/31 09:09:09;;;;;;;590.88;49.47;;;30.90;91.90;;;;;;5067235;28;20178;-63
2023/07/31 09:11:36;;;;;;;387.42;37.25;;;30.80;92.40;;;;;;5067668;28;20096;-63
2023/07/31 09:14:08;;;;;;;248.95;27.40;;;30.40;93.80;;;;;;5067039;28;20081;-62
2023/07/31 09:16:35;;;;;;;215.27;24.95;;;30.00;95.90;;;;;;5067164;28;20680;-60
2023/07/31 09:19:05;;;;;;;144.70;21.00;;;29.30;97.90;;;;;;5066567;28;20168;-64
2023/07/31 09:21:31;;;;;;;126.95;18.33;;;28.70;99.90;;;;;;5066177;28;20084;-62
2023/07/31 09:23:57;;;;;;;117.50;18.27;;;28.30;99.90;;;;;;5068886;28;20111;-65
2023/07/31 09:26:35;;;;;;;189.30;23.85;;;27.80;99.90;;;;;;5066779;28;20089;-66
2023/07/31 09:29:04;;;;;;;148.48;23.17;;;27.30;99.90;;;;;;5013365;22;1917584;-68
2023/07/31 09:31:41;;;;;;;134.60;20.10;;;26.90;99.90;;;;;;5069296;28;20167;-67
2023/07/31 09:34:07;;;;;;;;;;;26.40;99.90;;;;;;5079388;28;20076;-68
2023/07/31 09:36:40;;;;;;;130.23;20.83;;;25.90;99.90;;;;;;5071801;28;20416;-70
2023/07/31 09:39:11;;;;;;;118.75;19.63;;;25.50;99.90;;;;;;5073502;28;20385;-68
2023/07/31 09:41:42;;;;;;;102.32;17.30;;;25.20;99.90;;;;;;5075676;28;20081;-69
2023/07/31 09:44:09;;;;;;;92.10;16.40;;;25.10;99.90;;;;;;5075013;28;20081;-70
2023/07/31 09:46:39;;;;;;;98.68;17.05;;;25.00;99.90;;;;;;5078551;28;20186;-68
2023/07/31 09:49:09;;;;;;;69.97;12.90;;;24.90;99.90;;;;;;5081633;28;20131;-69
2023/07/31 09:51:38;;;;;;;66.13;11.32;;;24.90;99.90;;;;;;5072403;28;20156;-70
2023/07/31 09:54:25;;;;;;;31.05;6.78;;;24.80;99.90;;;;;;5075900;28;20204;-67
2023/07/31 10:12:09;;;;;;;34.65;7.07;;;24.50;99.90;;;;;;5146612;27;21008;-62
2023/07/31 10:14:36;;;;;;;28.85;7.07;;;24.30;99.90;;;;;;5122908;27;20144;-62
2023/07/31 10:17:04;;;;;;;19.60;4.60;;;24.20;99.90;;;;;;5124989;28;20108;-63
2023/07/31 10:19:31;;;;;;;19.65;4.38;;;24.10;99.90;;;;;;5107124;28;20568;-60
2023/07/31 10:34:02;;;;;;;17.92;3.72;;;24.00;99.90;;;;;;5075548;28;20547;-63
2023/07/31 10:36:29;;;;;;;18.15;3.97;;;24.30;99.90;;;;;;5071865;28;20094;-62
2023/07/31 10:38:56;;;;;;;21.05;4.45;;;24.30;99.90;;;;;;5068212;28;20645;-62
2023/07/31 10:41:32;;;;;;;18.00;4.00;;;24.40;99.90;;;;;;5066869;28;20097;-62
2023/07/31 10:44:02;;;;;;;15.23;3.85;;;24.40;99.90;;;;;;5068546;28;20081;-62
2023/07/31 10:46:29;;;;;;;24.60;4.45;;;24.40;99.90;;;;;;5077852;28;20084;-63
2023/07/31 10:49:03;;;;;;;16.17;4.28;;;24.50;99.90;;;;;;5067691;28;20126;-61
2023/07/31 10:51:42;;;;;;;11.75;3.10;;;24.50;99.90;;;;;;5069121;28;20077;-63
2023/07/31 10:54:14;;;;;;;12.40;3.08;;;24.60;99.90;;;;;;5067848;28;20111;-64
2023/07/31 10:56:46;;;;;;;11.50;3.25;;;24.70;99.90;;;;;;5073029;28;20186;-62
2023/07/31 10:59:13;;;;;;;15.68;3.17;;;24.70;99.90;;;;;;5073410;28;20081;-62
2023/07/31 11:01:56;;;;;;;15.75;4.07;;;24.70;99.90;;;;;;5068709;28;20194;-65
2023/07/31 11:04:27;;;;;;;12.48;3.53;;;24.70;99.90;;;;;;5069600;28;20167;-62
2023/07/31 11:07:02;;;;;;;15.13;3.70;;;24.70;99.90;;;;;;5072038;28;20081;-64
2023/07/31 11:09:32;;;;;;;19.83;4.50;;;24.70;99.90;;;;;;5068752;28;20077;-64
2023/07/31 11:12:01;;;;;;;26.60;5.90;;;24.70;99.90;;;;;;5067880;28;20094;-66
2023/07/31 11:14:27;;;;;;;25.92;6.28;;;24.70;99.90;;;;;;5066944;28;20089;-66
2023/07/31 11:16:54;;;;;;;19.63;11.73;;;24.70;99.90;;;;;;5065690;28;20081;-62
2023/07/31 11:19:26;;;;;;;15.43;8.32;;;24.70;99.90;;;;;;5066389;28;20108;-65
2023/07/31 11:21:53;;;;;;;11.40;3.15;;;24.70;99.90;;;;;;5067650;28;20089;-61
2023/07/31 11:24:20;;;;;;;10.77;3.13;;;24.80;99.90;;;;;;5043693;28;20074;-64
2023/07/31 11:26:53;;;;;;;12.52;4.57;;;24.90;99.90;;;;;;5043204;28;20135;-65
2023/07/31 11:29:20;;;;;;;9.52;3.55;;;25.10;99.90;;;;;;5043398;28;20082;-62
2023/07/31 11:31:49;;;;;;;6.28;2.00;;;25.40;99.90;;;;;;5044338;28;20504;-65
2023/07/31 11:34:17;;;;;;;5.53;1.52;;;25.60;99.90;;;;;;5033826;28;20082;-64
2023/07/31 11:36:54;;;;;;;4.55;1.50;;;25.80;99.90;;;;;;5029336;28;20540;-64
2023/07/31 11:39:21;;;;;;;3.53;1.50;;;26.10;99.90;;;;;;5031686;28;20164;-64
2023/07/31 11:41:48;;;;;;;7.60;2.00;;;26.20;99.90;;;;;;5030243;28;20093;-63
2023/07/31 11:44:14;;;;;;;7.40;3.05;;;26.50;99.90;;;;;;5039315;28;20085;-63
2023/07/31 11:46:42;;;;;;;6.88;3.60;;;26.80;99.90;;;;;;5032704;28;20132;-64
2023/07/31 11:49:09;;;;;;;5.47;3.70;;;26.90;99.90;;;;;;5034821;28;20078;-64
2023/07/31 11:51:35;;;;;;;5.10;2.55;;;27.00;99.90;;;;;;5033955;28;20082;-63
2023/07/31 11:54:03;;;;;;;3.20;1.30;;;27.10;99.90;;;;;;5011819;28;20085;-63
2023/07/31 11:56:29;;;;;;;3.42;1.60;;;27.20;99.90;;;;;;5029184;28;20097;-63
2023/07/31 11:58:59;;;;;;;3.88;1.65;;;27.40;99.90;;;;;;5029281;28;20121;-64
2023/07/31 12:01:27;;;;;;;10.75;1.67;;;27.40;99.90;;;;;;5029329;28;20078;-64
2023/07/31 12:03:54;;;;;;;5.65;2.00;;;27.50;99.90;;;;;;5028309;28;20130;-64
2023/07/31 12:06:21;;;;;;;10.35;3.10;;;27.60;99.90;;;;;;5035588;28;20502;-62
2023/07/31 12:08:48;;;;;;;15.43;3.38;;;27.60;99.90;;;;;;5032532;28;20078;-63
2023/07/31 12:11:17;;;;;;;28.80;4.30;;;27.60;99.90;;;;;;5030178;28;20085;-63
2023/07/31 12:13:44;;;;;;;31.35;4.93;;;27.50;99.90;;;;;;5030338;28;20443;-64
2023/07/31 12:16:10;;;;;;;29.52;4.57;;;27.50;99.90;;;;;;5032339;28;20078;-63
2023/07/31 12:18:38;;;;;;;34.67;6.03;;;27.40;99.90;;;;;;5033212;28;20077;-61
2023/07/31 12:21:07;;;;;;;36.25;5.57;;;27.40;99.90;;;;;;5035001;28;20084;-62
2023/07/31 12:23:35;;;;;;;38.92;5.90;;;27.40;99.90;;;;;;5032159;28;20129;-63
2023/07/31 12:26:04;;;;;;;34.35;7.03;;;27.40;99.90;;;;;;5029373;28;20086;-63
2023/07/31 12:28:31;;;;;;;52.60;8.30;;;27.40;99.90;;;;;;5034220;28;20077;-61
2023/07/31 12:31:01;;;;;;;55.95;8.93;;;27.30;99.90;;;;;;5031346;28;20078;-61
2023/07/31 12:33:38;;;;;;;69.35;11.40;;;27.20;99.90;;;;;;5040139;28;20534;-61
2023/07/31 12:36:11;;;;;;;64.18;9.48;;;27.10;99.90;;;;;;5029319;28;20535;-61
2023/07/31 12:38:37;;;;;;;63.58;9.75;;;27.10;99.90;;;;;;5032669;28;20097;-62
2023/07/31 12:41:06;;;;;;;62.92;9.68;;;27.10;99.90;;;;;;5030581;28;20106;-62
2023/07/31 12:43:33;;;;;;;59.15;8.98;;;27.10;99.90;;;;;;5041039;28;20089;-60
2023/07/31 12:45:59;;;;;;;51.60;8.38;;;27.10;99.90;;;;;;5028476;28;20189;-61
2023/07/31 12:48:26;;;;;;;47.78;7.72;;;27.10;99.90;;;;;;5037042;28;20135;-61
2023/07/31 12:50:52;;;;;;;49.08;8.05;;;27.10;99.90;;;;;;5028802;28;20078;-62
2023/07/31 12:53:19;;;;;;;43.38;6.35;;;27.10;99.90;;;;;;5033285;28;20104;-62
2023/07/31 12:55:45;;;;;;;44.67;7.55;;;27.00;99.90;;;;;;5035893;28;20139;-64
2023/07/31 12:58:11;;;;;;;29.60;5.53;;;27.00;99.90;;;;;;5034992;28;20550;-62
2023/07/31 13:00:38;;;;;;;58.58;7.43;;;27.00;99.90;;;;;;5034763;28;20086;-64
2023/07/31 13:03:04;;;;;;;39.88;6.38;;;27.00;99.90;;;;;;5032623;28;20096;-63
2023/07/31 13:05:31;;;;;;;31.50;5.60;;;27.00;99.90;;;;;;5011506;28;20105;-62